SUMU/MVD METAR and TAF weather

Enter ICAO airport designator
Station Type Date Time Source
SUMU METAR 2019/08/24 20:00 UTC NOAA

SUMU 242000Z 04008KT CAVOK 17/04 Q1024 NOSIG


Station Type Date Time Source
SUMU Decoded METAR 2019/08/24 20:00 UTC NOAA

Station name not available
Aug 24, 2019 - 04:00 PM EDT / 2019.08.24 2000 UTC
Wind: from the NE (040 degrees) at 9 MPH (8 KT):0
Visibility: greater than 7 mile(s):0
Temperature: 62 F (17 C)
Dew Point: 39 F (4 C)
Relative Humidity: 41%
Pressure (altimeter): 30.24 in. Hg (1024 hPa)
ob: SUMU 242000Z 04008KT CAVOK 17/04 Q1024 NOSIG
cycle: 20

Station Type Date Time Source
SUMU TAF 2019/08/24 18:35 UTC NOAA

TAF SUMU 241700Z 2418/2518 03010KT CAVOK TX19/2518Z TN06/2510Z PROB 30
TEMPO 2506/2512 5000 BR

Example: see airport list